sensor_id;sensor_type;location;lat;lon;timestamp;P1;durP1;ratioP1;P2;durP2;ratioP2
60312;SDS011;46158;52.850;6.970;2023-06-01T00:01:29;8.50;;;3.50;;
60312;SDS011;46158;52.850;6.970;2023-06-01T00:04:01;9.82;;;3.40;;
60312;SDS011;46158;52.850;6.970;2023-06-01T00:06:30;7.85;;;3.30;;
60312;SDS011;46158;52.850;6.970;2023-06-01T00:08:57;10.85;;;3.55;;
60312;SDS011;46158;52.850;6.970;2023-06-01T00:11:23;12.20;;;3.60;;
60312;SDS011;46158;52.850;6.970;2023-06-01T00:13:50;11.20;;;3.45;;
60312;SDS011;46158;52.850;6.970;2023-06-01T00:16:19;8.60;;;3.35;;
60312;SDS011;46158;52.850;6.970;2023-06-01T00:18:48;6.78;;;3.20;;
60312;SDS011;46158;52.850;6.970;2023-06-01T00:21:17;10.00;;;3.25;;
60312;SDS011;46158;52.850;6.970;2023-06-01T00:23:44;11.07;;;3.40;;
60312;SDS011;46158;52.850;6.970;2023-06-01T00:26:12;10.52;;;3.30;;
60312;SDS011;46158;52.850;6.970;2023-06-01T00:28:38;10.27;;;3.28;;
60312;SDS011;46158;52.850;6.970;2023-06-01T00:31:04;10.90;;;3.35;;
60312;SDS011;46158;52.850;6.970;2023-06-01T00:33:31;8.40;;;3.30;;
60312;SDS011;46158;52.850;6.970;2023-06-01T00:35:58;9.95;;;3.35;;
60312;SDS011;46158;52.850;6.970;2023-06-01T00:38:24;10.95;;;3.58;;
60312;SDS011;46158;52.850;6.970;2023-06-01T00:40:50;9.40;;;3.40;;
60312;SDS011;46158;52.850;6.970;2023-06-01T00:43:18;8.95;;;3.40;;
60312;SDS011;46158;52.850;6.970;2023-06-01T00:45:45;10.80;;;3.67;;
60312;SDS011;46158;52.850;6.970;2023-06-01T00:48:11;8.27;;;3.13;;
60312;SDS011;46158;52.850;6.970;2023-06-01T00:50:38;8.90;;;3.25;;
60312;SDS011;46158;52.850;6.970;2023-06-01T00:53:05;9.38;;;3.22;;
60312;SDS011;46158;52.850;6.970;2023-06-01T00:55:34;10.68;;;3.40;;
60312;SDS011;46158;52.850;6.970;2023-06-01T00:58:00;10.60;;;3.60;;
60312;SDS011;46158;52.850;6.970;2023-06-01T01:00:30;11.85;;;3.70;;
60312;SDS011;46158;52.850;6.970;2023-06-01T01:03:02;9.70;;;3.60;;
60312;SDS011;46158;52.850;6.970;2023-06-01T01:05:43;9.63;;;3.42;;
60312;SDS011;46158;52.850;6.970;2023-06-01T01:08:28;10.27;;;3.55;;
60312;SDS011;46158;52.850;6.970;2023-06-01T01:11:14;7.43;;;3.28;;
60312;SDS011;46158;52.850;6.970;2023-06-01T01:16:57;11.10;;;3.30;;
60312;SDS011;46158;52.850;6.970;2023-06-01T01:30:49;12.32;;;3.38;;
60312;SDS011;46158;52.850;6.970;2023-06-01T01:33:19;10.57;;;3.53;;
60312;SDS011;46158;52.850;6.970;2023-06-01T01:35:47;12.25;;;3.63;;
60312;SDS011;46158;52.850;6.970;2023-06-01T01:38:15;11.15;;;3.50;;
60312;SDS011;46158;52.850;6.970;2023-06-01T01:40:41;13.23;;;3.67;;
60312;SDS011;46158;52.850;6.970;2023-06-01T01:43:06;8.82;;;3.38;;
60312;SDS011;46158;52.850;6.970;2023-06-01T01:45:33;10.55;;;3.80;;
60312;SDS011;46158;52.850;6.970;2023-06-01T01:48:10;10.50;;;3.65;;
60312;SDS011;46158;52.850;6.970;2023-06-01T01:50:49;10.10;;;3.75;;
60312;SDS011;46158;52.850;6.970;2023-06-01T01:53:18;8.30;;;3.60;;
60312;SDS011;46158;52.850;6.970;2023-06-01T01:55:48;11.32;;;3.45;;
60312;SDS011;46158;52.850;6.970;2023-06-01T01:58:16;11.73;;;3.83;;
60312;SDS011;46158;52.850;6.970;2023-06-01T02:00:42;12.73;;;3.80;;
60312;SDS011;46158;52.850;6.970;2023-06-01T02:03:15;12.07;;;3.90;;
60312;SDS011;46158;52.850;6.970;2023-06-01T02:05:42;11.43;;;3.55;;
60312;SDS011;46158;52.850;6.970;2023-06-01T02:08:10;10.18;;;3.70;;
60312;SDS011;46158;52.850;6.970;2023-06-01T02:10:36;9.98;;;3.70;;
60312;SDS011;46158;52.850;6.970;2023-06-01T02:13:06;9.90;;;3.47;;
60312;SDS011;46158;52.850;6.970;2023-06-01T02:15:32;10.93;;;3.85;;
60312;SDS011;46158;52.850;6.970;2023-06-01T02:18:07;9.68;;;3.60;;
60312;SDS011;46158;52.850;6.970;2023-06-01T02:20:33;13.73;;;3.65;;
60312;SDS011;46158;52.850;6.970;2023-06-01T02:22:59;10.70;;;3.88;;
60312;SDS011;46158;52.850;6.970;2023-06-01T02:25:25;13.43;;;3.85;;
60312;SDS011;46158;52.850;6.970;2023-06-01T02:27:54;10.60;;;3.58;;
60312;SDS011;46158;52.850;6.970;2023-06-01T02:30:24;12.35;;;3.67;;
60312;SDS011;46158;52.850;6.970;2023-06-01T02:32:50;12.77;;;3.70;;
60312;SDS011;46158;52.850;6.970;2023-06-01T02:35:20;8.73;;;3.53;;
60312;SDS011;46158;52.850;6.970;2023-06-01T02:37:49;9.00;;;3.55;;
60312;SDS011;46158;52.850;6.970;2023-06-01T02:40:24;9.00;;;3.53;;
60312;SDS011;46158;52.850;6.970;2023-06-01T02:42:50;9.23;;;3.75;;
60312;SDS011;46158;52.850;6.970;2023-06-01T02:45:16;11.25;;;3.80;;
60312;SDS011;46158;52.850;6.970;2023-06-01T02:47:42;11.68;;;3.67;;
60312;SDS011;46158;52.850;6.970;2023-06-01T02:50:14;12.73;;;3.83;;
60312;SDS011;46158;52.850;6.970;2023-06-01T02:52:41;10.82;;;3.97;;
60312;SDS011;46158;52.850;6.970;2023-06-01T02:55:07;11.38;;;3.67;;
60312;SDS011;46158;52.850;6.970;2023-06-01T02:57:33;11.75;;;3.83;;
60312;SDS011;46158;52.850;6.970;2023-06-01T03:00:02;12.85;;;3.95;;
60312;SDS011;46158;52.850;6.970;2023-06-01T03:02:44;11.68;;;3.97;;
60312;SDS011;46158;52.850;6.970;2023-06-01T03:05:13;11.68;;;3.60;;
60312;SDS011;46158;52.850;6.970;2023-06-01T03:07:40;11.30;;;3.78;;
60312;SDS011;46158;52.850;6.970;2023-06-01T03:10:07;9.15;;;3.38;;
60312;SDS011;46158;52.850;6.970;2023-06-01T03:12:33;10.02;;;3.75;;
60312;SDS011;46158;52.850;6.970;2023-06-01T03:14:59;10.13;;;3.47;;
60312;SDS011;46158;52.850;6.970;2023-06-01T03:17:33;10.27;;;3.72;;
60312;SDS011;46158;52.850;6.970;2023-06-01T03:20:00;9.57;;;3.65;;
60312;SDS011;46158;52.850;6.970;2023-06-01T03:22:27;12.45;;;3.80;;
60312;SDS011;46158;52.850;6.970;2023-06-01T03:24:53;10.48;;;3.55;;
60312;SDS011;46158;52.850;6.970;2023-06-01T03:27:22;11.50;;;3.60;;
60312;SDS011;46158;52.850;6.970;2023-06-01T03:29:54;8.68;;;3.47;;
60312;SDS011;46158;52.850;6.970;2023-06-01T03:32:19;9.55;;;3.55;;
60312;SDS011;46158;52.850;6.970;2023-06-01T03:34:45;10.38;;;3.80;;
60312;SDS011;46158;52.850;6.970;2023-06-01T03:37:14;11.05;;;3.80;;
60312;SDS011;46158;52.850;6.970;2023-06-01T03:39:40;11.32;;;3.55;;
60312;SDS011;46158;52.850;6.970;2023-06-01T03:42:06;9.55;;;3.33;;
60312;SDS011;46158;52.850;6.970;2023-06-01T03:44:32;10.27;;;3.55;;
60312;SDS011;46158;52.850;6.970;2023-06-01T03:46:59;9.23;;;3.40;;
60312;SDS011;46158;52.850;6.970;2023-06-01T03:49:25;10.20;;;3.80;;
60312;SDS011;46158;52.850;6.970;2023-06-01T03:51:54;10.15;;;3.38;;
60312;SDS011;46158;52.850;6.970;2023-06-01T03:54:20;10.32;;;3.50;;
60312;SDS011;46158;52.850;6.970;2023-06-01T03:56:49;8.73;;;3.50;;
60312;SDS011;46158;52.850;6.970;2023-06-01T03:59:15;9.00;;;3.60;;
60312;SDS011;46158;52.850;6.970;2023-06-01T04:01:44;11.05;;;3.47;;
60312;SDS011;46158;52.850;6.970;2023-06-01T04:04:13;8.13;;;3.22;;
60312;SDS011;46158;52.850;6.970;2023-06-01T04:06:42;9.63;;;3.63;;
60312;SDS011;46158;52.850;6.970;2023-06-01T04:09:15;9.17;;;3.50;;
60312;SDS011;46158;52.850;6.970;2023-06-01T04:11:41;10.82;;;3.60;;
60312;SDS011;46158;52.850;6.970;2023-06-01T04:14:08;8.63;;;3.35;;
60312;SDS011;46158;52.850;6.970;2023-06-01T04:16:37;10.85;;;3.75;;
60312;SDS011;46158;52.850;6.970;2023-06-01T04:19:03;7.50;;;3.22;;
60312;SDS011;46158;52.850;6.970;2023-06-01T04:21:29;8.70;;;3.35;;
60312;SDS011;46158;52.850;6.970;2023-06-01T04:24:00;11.30;;;3.53;;
60312;SDS011;46158;52.850;6.970;2023-06-01T04:26:29;13.70;;;3.70;;
60312;SDS011;46158;52.850;6.970;2023-06-01T04:29:01;11.38;;;3.65;;
60312;SDS011;46158;52.850;6.970;2023-06-01T04:31:28;9.68;;;3.50;;
60312;SDS011;46158;52.850;6.970;2023-06-01T04:33:57;8.02;;;3.20;;
60312;SDS011;46158;52.850;6.970;2023-06-01T04:36:29;7.40;;;3.20;;
60312;SDS011;46158;52.850;6.970;2023-06-01T04:38:57;10.18;;;3.47;;
60312;SDS011;46158;52.850;6.970;2023-06-01T04:41:25;10.93;;;3.50;;
60312;SDS011;46158;52.850;6.970;2023-06-01T04:43:51;9.95;;;3.28;;
60312;SDS011;46158;52.850;6.970;2023-06-01T04:46:21;11.60;;;3.53;;
60312;SDS011;46158;52.850;6.970;2023-06-01T04:48:50;9.77;;;3.55;;
60312;SDS011;46158;52.850;6.970;2023-06-01T04:51:26;15.52;;;3.90;;
60312;SDS011;46158;52.850;6.970;2023-06-01T04:53:55;18.73;;;4.90;;
60312;SDS011;46158;52.850;6.970;2023-06-01T04:56:28;14.27;;;4.32;;
60312;SDS011;46158;52.850;6.970;2023-06-01T04:59:19;15.45;;;3.92;;
60312;SDS011;46158;52.850;6.970;2023-06-01T05:01:55;11.75;;;3.67;;
60312;SDS011;46158;52.850;6.970;2023-06-01T05:04:27;12.68;;;3.83;;
60312;SDS011;46158;52.850;6.970;2023-06-01T05:06:53;13.85;;;4.10;;
60312;SDS011;46158;52.850;6.970;2023-06-01T05:09:23;15.43;;;4.00;;
60312;SDS011;46158;52.850;6.970;2023-06-01T05:11:59;15.43;;;4.53;;
60312;SDS011;46158;52.850;6.970;2023-06-01T05:14:29;13.32;;;3.97;;
60312;SDS011;46158;52.850;6.970;2023-06-01T05:17:08;18.10;;;4.78;;
60312;SDS011;46158;52.850;6.970;2023-06-01T05:19:53;12.82;;;3.88;;
60312;SDS011;46158;52.850;6.970;2023-06-01T05:22:19;13.32;;;3.67;;
60312;SDS011;46158;52.850;6.970;2023-06-01T05:25:13;15.32;;;4.00;;
60312;SDS011;46158;52.850;6.970;2023-06-01T05:27:57;10.38;;;3.60;;
60312;SDS011;46158;52.850;6.970;2023-06-01T05:30:23;10.50;;;3.38;;
60312;SDS011;46158;52.850;6.970;2023-06-01T05:32:50;13.85;;;3.88;;
60312;SDS011;46158;52.850;6.970;2023-06-01T05:35:16;11.05;;;3.65;;
60312;SDS011;46158;52.850;6.970;2023-06-01T05:37:42;16.83;;;4.03;;
60312;SDS011;46158;52.850;6.970;2023-06-01T05:40:16;13.15;;;3.97;;
60312;SDS011;46158;52.850;6.970;2023-06-01T05:43:00;12.75;;;3.53;;
60312;SDS011;46158;52.850;6.970;2023-06-01T05:45:35;14.60;;;4.45;;
60312;SDS011;46158;52.850;6.970;2023-06-01T05:48:02;12.05;;;3.70;;
60312;SDS011;46158;52.850;6.970;2023-06-01T05:50:46;12.57;;;3.72;;
60312;SDS011;46158;52.850;6.970;2023-06-01T05:53:16;11.30;;;3.60;;
60312;SDS011;46158;52.850;6.970;2023-06-01T05:55:48;11.55;;;3.28;;
60312;SDS011;46158;52.850;6.970;2023-06-01T05:58:17;13.02;;;3.90;;
60312;SDS011;46158;52.850;6.970;2023-06-01T06:00:46;14.18;;;3.80;;
60312;SDS011;46158;52.850;6.970;2023-06-01T06:03:23;16.13;;;4.18;;
60312;SDS011;46158;52.850;6.970;2023-06-01T06:05:55;14.68;;;3.97;;
60312;SDS011;46158;52.850;6.970;2023-06-01T06:08:21;17.30;;;4.10;;
60312;SDS011;46158;52.850;6.970;2023-06-01T06:10:57;15.57;;;4.18;;
60312;SDS011;46158;52.850;6.970;2023-06-01T06:13:42;14.68;;;4.10;;
60312;SDS011;46158;52.850;6.970;2023-06-01T06:16:08;18.50;;;4.07;;
60312;SDS011;46158;52.850;6.970;2023-06-01T06:18:40;14.55;;;4.00;;
60312;SDS011;46158;52.850;6.970;2023-06-01T06:21:09;13.48;;;3.85;;
60312;SDS011;46158;52.850;6.970;2023-06-01T06:23:36;11.88;;;3.75;;
60312;SDS011;46158;52.850;6.970;2023-06-01T06:26:05;13.63;;;3.85;;
60312;SDS011;46158;52.850;6.970;2023-06-01T06:28:54;11.00;;;3.53;;
60312;SDS011;46158;52.850;6.970;2023-06-01T06:31:20;14.63;;;3.63;;
60312;SDS011;46158;52.850;6.970;2023-06-01T06:33:46;14.20;;;4.05;;
60312;SDS011;46158;52.850;6.970;2023-06-01T06:36:13;13.02;;;3.78;;
60312;SDS011;46158;52.850;6.970;2023-06-01T06:38:48;16.40;;;4.22;;
60312;SDS011;46158;52.850;6.970;2023-06-01T06:41:17;12.65;;;3.60;;
60312;SDS011;46158;52.850;6.970;2023-06-01T06:43:48;16.13;;;3.70;;
60312;SDS011;46158;52.850;6.970;2023-06-01T06:46:14;14.55;;;3.75;;
60312;SDS011;46158;52.850;6.970;2023-06-01T06:48:41;11.80;;;3.20;;
60312;SDS011;46158;52.850;6.970;2023-06-01T06:51:19;12.27;;;3.50;;
60312;SDS011;46158;52.850;6.970;2023-06-01T06:53:46;12.02;;;3.38;;
60312;SDS011;46158;52.850;6.970;2023-06-01T06:56:42;13.07;;;3.65;;
60312;SDS011;46158;52.850;6.970;2023-06-01T06:59:12;12.55;;;3.45;;
60312;SDS011;46158;52.850;6.970;2023-06-01T07:01:55;9.65;;;3.13;;
60312;SDS011;46158;52.850;6.970;2023-06-01T07:06:53;11.25;;;3.33;;
60312;SDS011;46158;52.850;6.970;2023-06-01T07:09:20;12.32;;;3.55;;
60312;SDS011;46158;52.850;6.970;2023-06-01T07:12:11;11.18;;;3.15;;
60312;SDS011;46158;52.850;6.970;2023-06-01T07:14:37;11.00;;;3.17;;
60312;SDS011;46158;52.850;6.970;2023-06-01T07:17:43;10.13;;;3.08;;
60312;SDS011;46158;52.850;6.970;2023-06-01T07:20:14;10.20;;;3.30;;
60312;SDS011;46158;52.850;6.970;2023-06-01T07:22:52;8.77;;;2.70;;
60312;SDS011;46158;52.850;6.970;2023-06-01T07:25:27;7.22;;;3.05;;
60312;SDS011;46158;52.850;6.970;2023-06-01T07:28:03;9.30;;;3.08;;
60312;SDS011;46158;52.850;6.970;2023-06-01T07:30:37;11.70;;;3.00;;
60312;SDS011;46158;52.850;6.970;2023-06-01T07:33:23;12.00;;;3.20;;
60312;SDS011;46158;52.850;6.970;2023-06-01T07:35:55;11.63;;;2.95;;
60312;SDS011;46158;52.850;6.970;2023-06-01T07:38:28;9.45;;;2.90;;
60312;SDS011;46158;52.850;6.970;2023-06-01T07:41:18;11.70;;;3.10;;
60312;SDS011;46158;52.850;6.970;2023-06-01T07:44:05;10.82;;;3.30;;
60312;SDS011;46158;52.850;6.970;2023-06-01T07:46:34;8.63;;;3.10;;
60312;SDS011;46158;52.850;6.970;2023-06-01T07:49:06;13.20;;;3.30;;
60312;SDS011;46158;52.850;6.970;2023-06-01T07:51:44;12.48;;;3.30;;
60312;SDS011;46158;52.850;6.970;2023-06-01T07:54:20;9.25;;;2.80;;
60312;SDS011;46158;52.850;6.970;2023-06-01T07:56:47;10.80;;;2.85;;
60312;SDS011;46158;52.850;6.970;2023-06-01T07:59:12;10.90;;;2.90;;
60312;SDS011;46158;52.850;6.970;2023-06-01T08:01:39;11.88;;;2.88;;
60312;SDS011;46158;52.850;6.970;2023-06-01T08:04:05;10.27;;;2.95;;
60312;SDS011;46158;52.850;6.970;2023-06-01T08:06:38;8.40;;;2.70;;
60312;SDS011;46158;52.850;6.970;2023-06-01T08:09:09;9.63;;;2.92;;
60312;SDS011;46158;52.850;6.970;2023-06-01T08:11:36;11.03;;;2.80;;
60312;SDS011;46158;52.850;6.970;2023-06-01T08:14:05;14.32;;;3.10;;
60312;SDS011;46158;52.850;6.970;2023-06-01T08:16:36;10.50;;;2.92;;
60312;SDS011;46158;52.850;6.970;2023-06-01T08:19:02;10.88;;;2.85;;
60312;SDS011;46158;52.850;6.970;2023-06-01T08:21:29;9.43;;;2.90;;
60312;SDS011;46158;52.850;6.970;2023-06-01T08:23:55;12.18;;;3.03;;
60312;SDS011;46158;52.850;6.970;2023-06-01T08:26:21;11.23;;;3.00;;
60312;SDS011;46158;52.850;6.970;2023-06-01T08:28:48;8.85;;;2.80;;
60312;SDS011;46158;52.850;6.970;2023-06-01T08:31:18;5.30;;;2.40;;
60312;SDS011;46158;52.850;6.970;2023-06-01T08:33:46;8.88;;;2.63;;
60312;SDS011;46158;52.850;6.970;2023-06-01T08:36:18;7.22;;;2.42;;
60312;SDS011;46158;52.850;6.970;2023-06-01T08:38:45;7.60;;;2.50;;
60312;SDS011;46158;52.850;6.970;2023-06-01T08:41:40;9.45;;;2.90;;
60312;SDS011;46158;52.850;6.970;2023-06-01T08:44:10;9.77;;;2.70;;
60312;SDS011;46158;52.850;6.970;2023-06-01T08:47:03;7.00;;;2.38;;
60312;SDS011;46158;52.850;6.970;2023-06-01T08:49:30;8.05;;;2.50;;
60312;SDS011;46158;52.850;6.970;2023-06-01T08:54:37;6.47;;;2.50;;
60312;SDS011;46158;52.850;6.970;2023-06-01T08:57:07;4.82;;;2.20;;
60312;SDS011;46158;52.850;6.970;2023-06-01T08:59:34;8.15;;;2.40;;
60312;SDS011;46158;52.850;6.970;2023-06-01T09:02:04;8.00;;;2.70;;
60312;SDS011;46158;52.850;6.970;2023-06-01T09:04:34;4.97;;;2.30;;
60312;SDS011;46158;52.850;6.970;2023-06-01T09:07:09;8.13;;;2.33;;
60312;SDS011;46158;52.850;6.970;2023-06-01T09:09:40;7.05;;;2.40;;
60312;SDS011;46158;52.850;6.970;2023-06-01T09:12:26;8.00;;;2.50;;
60312;SDS011;46158;52.850;6.970;2023-06-01T09:15:19;8.60;;;2.40;;
60312;SDS011;46158;52.850;6.970;2023-06-01T09:18:14;7.55;;;2.45;;
60312;SDS011;46158;52.850;6.970;2023-06-01T09:20:37;8.15;;;2.50;;
60312;SDS011;46158;52.850;6.970;2023-06-01T09:23:09;8.73;;;2.70;;
60312;SDS011;46158;52.850;6.970;2023-06-01T09:26:06;12.43;;;2.78;;
60312;SDS011;46158;52.850;6.970;2023-06-01T09:31:38;6.57;;;2.40;;
60312;SDS011;46158;52.850;6.970;2023-06-01T09:34:21;8.93;;;2.50;;
60312;SDS011;46158;52.850;6.970;2023-06-01T09:36:55;6.80;;;2.25;;
60312;SDS011;46158;52.850;6.970;2023-06-01T09:39:33;6.03;;;2.30;;
60312;SDS011;46158;52.850;6.970;2023-06-01T09:42:00;10.55;;;2.80;;
60312;SDS011;46158;52.850;6.970;2023-06-01T09:44:33;7.03;;;2.30;;
60312;SDS011;46158;52.850;6.970;2023-06-01T09:47:02;7.18;;;2.42;;
60312;SDS011;46158;52.850;6.970;2023-06-01T09:49:30;5.78;;;2.40;;
60312;SDS011;46158;52.850;6.970;2023-06-01T09:54:41;7.25;;;2.78;;
60312;SDS011;46158;52.850;6.970;2023-06-01T09:57:25;13.93;;;2.85;;
60312;SDS011;46158;52.850;6.970;2023-06-01T10:00:04;10.70;;;2.72;;
60312;SDS011;46158;52.850;6.970;2023-06-01T10:02:47;9.88;;;2.70;;
60312;SDS011;46158;52.850;6.970;2023-06-01T10:05:17;7.60;;;2.53;;
60312;SDS011;46158;52.850;6.970;2023-06-01T10:07:44;5.97;;;2.38;;
60312;SDS011;46158;52.850;6.970;2023-06-01T10:10:12;10.48;;;2.42;;
60312;SDS011;46158;52.850;6.970;2023-06-01T10:12:45;12.45;;;2.67;;
60312;SDS011;46158;52.850;6.970;2023-06-01T10:15:14;7.10;;;2.45;;
60312;SDS011;46158;52.850;6.970;2023-06-01T10:17:41;9.35;;;2.60;;
60312;SDS011;46158;52.850;6.970;2023-06-01T10:20:09;8.90;;;2.70;;
60312;SDS011;46158;52.850;6.970;2023-06-01T10:22:42;9.10;;;2.65;;
60312;SDS011;46158;52.850;6.970;2023-06-01T10:25:11;8.52;;;2.55;;
60312;SDS011;46158;52.850;6.970;2023-06-01T10:27:51;6.13;;;2.25;;
60312;SDS011;46158;52.850;6.970;2023-06-01T10:32:49;9.55;;;2.95;;
60312;SDS011;46158;52.850;6.970;2023-06-01T10:40:40;8.38;;;2.90;;
60312;SDS011;46158;52.850;6.970;2023-06-01T10:49:12;8.75;;;2.80;;
60312;SDS011;46158;52.850;6.970;2023-06-01T10:52:06;8.18;;;2.80;;
60312;SDS011;46158;52.850;6.970;2023-06-01T10:54:56;11.40;;;3.00;;
60312;SDS011;46158;52.850;6.970;2023-06-01T10:57:54;10.70;;;3.03;;
60312;SDS011;46158;52.850;6.970;2023-06-01T11:00:52;8.57;;;2.90;;
60312;SDS011;46158;52.850;6.970;2023-06-01T11:14:30;7.22;;;3.25;;
60312;SDS011;46158;52.850;6.970;2023-06-01T11:20:01;9.05;;;2.95;;
60312;SDS011;46158;52.850;6.970;2023-06-01T11:22:37;10.13;;;2.95;;
60312;SDS011;46158;52.850;6.970;2023-06-01T11:25:04;12.88;;;3.40;;
60312;SDS011;46158;52.850;6.970;2023-06-01T11:27:41;14.48;;;3.45;;
60312;SDS011;46158;52.850;6.970;2023-06-01T11:30:08;14.52;;;3.50;;
60312;SDS011;46158;52.850;6.970;2023-06-01T11:32:39;13.35;;;3.50;;
60312;SDS011;46158;52.850;6.970;2023-06-01T11:35:16;8.77;;;2.90;;
60312;SDS011;46158;52.850;6.970;2023-06-01T11:37:43;10.93;;;3.08;;
60312;SDS011;46158;52.850;6.970;2023-06-01T11:40:09;12.48;;;3.05;;
60312;SDS011;46158;52.850;6.970;2023-06-01T11:42:41;12.63;;;3.42;;
60312;SDS011;46158;52.850;6.970;2023-06-01T11:45:07;14.00;;;3.42;;
60312;SDS011;46158;52.850;6.970;2023-06-01T11:47:40;11.35;;;3.22;;
60312;SDS011;46158;52.850;6.970;2023-06-01T11:50:06;11.25;;;3.17;;
60312;SDS011;46158;52.850;6.970;2023-06-01T11:52:57;12.48;;;3.33;;
60312;SDS011;46158;52.850;6.970;2023-06-01T11:55:25;9.70;;;3.40;;
60312;SDS011;46158;52.850;6.970;2023-06-01T11:57:51;12.95;;;3.10;;
60312;SDS011;46158;52.850;6.970;2023-06-01T12:00:20;10.77;;;3.20;;
60312;SDS011;46158;52.850;6.970;2023-06-01T12:02:49;12.90;;;3.40;;
60312;SDS011;46158;52.850;6.970;2023-06-01T12:05:38;12.40;;;3.20;;
60312;SDS011;46158;52.850;6.970;2023-06-01T12:08:08;12.13;;;3.25;;
60312;SDS011;46158;52.850;6.970;2023-06-01T12:10:39;9.98;;;2.95;;
60312;SDS011;46158;52.850;6.970;2023-06-01T12:13:08;10.88;;;3.30;;
60312;SDS011;46158;52.850;6.970;2023-06-01T12:15:37;9.10;;;3.10;;
60312;SDS011;46158;52.850;6.970;2023-06-01T12:18:04;13.73;;;3.55;;
60312;SDS011;46158;52.850;6.970;2023-06-01T12:20:51;14.77;;;3.60;;
60312;SDS011;46158;52.850;6.970;2023-06-01T12:23:20;13.75;;;3.95;;
60312;SDS011;46158;52.850;6.970;2023-06-01T12:25:56;10.07;;;3.22;;
60312;SDS011;46158;52.850;6.970;2023-06-01T12:28:24;11.27;;;3.40;;
60312;SDS011;46158;52.850;6.970;2023-06-01T12:33:40;11.65;;;3.22;;
60312;SDS011;46158;52.850;6.970;2023-06-01T12:36:08;14.20;;;3.40;;
60312;SDS011;46158;52.850;6.970;2023-06-01T12:38:52;13.27;;;3.50;;
60312;SDS011;46158;52.850;6.970;2023-06-01T12:41:18;15.63;;;3.40;;
60312;SDS011;46158;52.850;6.970;2023-06-01T12:43:49;11.98;;;3.72;;
60312;SDS011;46158;52.850;6.970;2023-06-01T12:46:23;11.10;;;3.38;;
60312;SDS011;46158;52.850;6.970;2023-06-01T12:49:11;11.10;;;3.70;;
60312;SDS011;46158;52.850;6.970;2023-06-01T12:51:45;13.43;;;3.65;;
60312;SDS011;46158;52.850;6.970;2023-06-01T12:54:14;14.63;;;3.60;;
60312;SDS011;46158;52.850;6.970;2023-06-01T12:56:40;12.90;;;3.45;;
60312;SDS011;46158;52.850;6.970;2023-06-01T12:59:06;12.35;;;3.30;;
60312;SDS011;46158;52.850;6.970;2023-06-01T13:01:32;13.60;;;3.65;;
60312;SDS011;46158;52.850;6.970;2023-06-01T13:03:59;12.63;;;3.47;;
60312;SDS011;46158;52.850;6.970;2023-06-01T13:06:33;12.85;;;3.85;;
60312;SDS011;46158;52.850;6.970;2023-06-01T13:09:00;13.02;;;3.60;;
60312;SDS011;46158;52.850;6.970;2023-06-01T13:11:27;11.07;;;3.53;;
60312;SDS011;46158;52.850;6.970;2023-06-01T13:13:53;10.77;;;3.35;;
60312;SDS011;46158;52.850;6.970;2023-06-01T13:16:20;14.38;;;3.72;;
60312;SDS011;46158;52.850;6.970;2023-06-01T13:18:49;11.32;;;3.47;;
60312;SDS011;46158;52.850;6.970;2023-06-01T13:21:16;16.88;;;3.88;;
60312;SDS011;46158;52.850;6.970;2023-06-01T13:23:59;15.02;;;3.70;;
60312;SDS011;46158;52.850;6.970;2023-06-01T13:26:35;15.48;;;3.60;;
60312;SDS011;46158;52.850;6.970;2023-06-01T13:29:12;11.82;;;3.50;;
60312;SDS011;46158;52.850;6.970;2023-06-01T13:31:42;13.35;;;3.75;;
60312;SDS011;46158;52.850;6.970;2023-06-01T13:34:08;15.40;;;3.70;;
60312;SDS011;46158;52.850;6.970;2023-06-01T13:36:34;10.98;;;3.47;;
60312;SDS011;46158;52.850;6.970;2023-06-01T13:39:00;14.52;;;3.50;;
60312;SDS011;46158;52.850;6.970;2023-06-01T13:41:29;13.52;;;3.90;;
60312;SDS011;46158;52.850;6.970;2023-06-01T13:43:58;14.75;;;3.70;;
60312;SDS011;46158;52.850;6.970;2023-06-01T13:46:24;13.95;;;3.40;;
60312;SDS011;46158;52.850;6.970;2023-06-01T13:48:50;11.48;;;3.20;;
60312;SDS011;46158;52.850;6.970;2023-06-01T13:51:19;12.25;;;3.65;;
60312;SDS011;46158;52.850;6.970;2023-06-01T13:56:27;11.05;;;3.40;;
60312;SDS011;46158;52.850;6.970;2023-06-01T13:59:14;13.85;;;3.88;;
60312;SDS011;46158;52.850;6.970;2023-06-01T14:01:44;12.65;;;3.70;;
60312;SDS011;46158;52.850;6.970;2023-06-01T14:04:11;12.38;;;3.75;;
60312;SDS011;46158;52.850;6.970;2023-06-01T14:06:48;14.43;;;3.78;;
60312;SDS011;46158;52.850;6.970;2023-06-01T14:09:18;10.63;;;3.40;;
60312;SDS011;46158;52.850;6.970;2023-06-01T14:11:54;13.52;;;3.50;;
60312;SDS011;46158;52.850;6.970;2023-06-01T14:14:20;13.60;;;3.80;;
60312;SDS011;46158;52.850;6.970;2023-06-01T14:16:47;13.65;;;3.40;;
60312;SDS011;46158;52.850;6.970;2023-06-01T14:19:34;15.80;;;3.97;;
60312;SDS011;46158;52.850;6.970;2023-06-01T14:22:24;11.45;;;3.67;;
60312;SDS011;46158;52.850;6.970;2023-06-01T14:25:35;8.95;;;3.20;;
60312;SDS011;46158;52.850;6.970;2023-06-01T14:28:04;11.27;;;3.38;;
60312;SDS011;46158;52.850;6.970;2023-06-01T14:30:31;11.48;;;3.70;;
60312;SDS011;46158;52.850;6.970;2023-06-01T14:33:16;12.70;;;3.42;;
60312;SDS011;46158;52.850;6.970;2023-06-01T14:35:51;14.00;;;3.30;;
60312;SDS011;46158;52.850;6.970;2023-06-01T14:38:17;9.18;;;3.20;;
60312;SDS011;46158;52.850;6.970;2023-06-01T14:40:44;13.73;;;3.60;;
60312;SDS011;46158;52.850;6.970;2023-06-01T14:43:17;13.02;;;3.40;;
60312;SDS011;46158;52.850;6.970;2023-06-01T14:45:45;13.25;;;3.58;;
60312;SDS011;46158;52.850;6.970;2023-06-01T14:48:11;13.35;;;3.53;;
60312;SDS011;46158;52.850;6.970;2023-06-01T14:50:40;16.97;;;3.90;;
60312;SDS011;46158;52.850;6.970;2023-06-01T14:53:06;12.05;;;3.58;;
60312;SDS011;46158;52.850;6.970;2023-06-01T14:55:32;11.85;;;3.30;;
60312;SDS011;46158;52.850;6.970;2023-06-01T14:57:58;10.95;;;3.42;;
60312;SDS011;46158;52.850;6.970;2023-06-01T15:00:30;9.93;;;3.40;;
60312;SDS011;46158;52.850;6.970;2023-06-01T15:05:50;14.85;;;3.88;;
60312;SDS011;46158;52.850;6.970;2023-06-01T15:08:17;13.25;;;3.70;;
60312;SDS011;46158;52.850;6.970;2023-06-01T15:10:47;11.35;;;3.35;;
60312;SDS011;46158;52.850;6.970;2023-06-01T15:13:13;12.52;;;3.53;;
60312;SDS011;46158;52.850;6.970;2023-06-01T15:15:40;13.85;;;3.72;;
60312;SDS011;46158;52.850;6.970;2023-06-01T15:18:08;10.32;;;3.10;;
60312;SDS011;46158;52.850;6.970;2023-06-01T15:20:34;15.45;;;3.80;;
60312;SDS011;46158;52.850;6.970;2023-06-01T15:23:03;11.25;;;3.20;;
60312;SDS011;46158;52.850;6.970;2023-06-01T15:25:35;12.23;;;3.45;;
60312;SDS011;46158;52.850;6.970;2023-06-01T15:28:11;11.90;;;3.50;;
60312;SDS011;46158;52.850;6.970;2023-06-01T15:30:37;11.82;;;3.42;;
60312;SDS011;46158;52.850;6.970;2023-06-01T15:33:06;12.10;;;3.50;;
60312;SDS011;46158;52.850;6.970;2023-06-01T15:38:18;11.68;;;3.60;;
60312;SDS011;46158;52.850;6.970;2023-06-01T15:40:47;12.45;;;3.88;;
60312;SDS011;46158;52.850;6.970;2023-06-01T15:43:14;13.30;;;3.30;;
60312;SDS011;46158;52.850;6.970;2023-06-01T15:45:40;14.73;;;3.60;;
60312;SDS011;46158;52.850;6.970;2023-06-01T15:48:12;14.00;;;3.50;;
60312;SDS011;46158;52.850;6.970;2023-06-01T15:50:47;13.93;;;3.65;;
60312;SDS011;46158;52.850;6.970;2023-06-01T15:53:13;13.43;;;3.50;;
60312;SDS011;46158;52.850;6.970;2023-06-01T15:55:51;13.38;;;3.20;;
60312;SDS011;46158;52.850;6.970;2023-06-01T15:58:40;12.38;;;3.08;;
60312;SDS011;46158;52.850;6.970;2023-06-01T16:01:15;10.68;;;3.40;;
60312;SDS011;46158;52.850;6.970;2023-06-01T16:04:00;12.82;;;3.20;;
60312;SDS011;46158;52.850;6.970;2023-06-01T16:06:26;10.57;;;3.08;;
60312;SDS011;46158;52.850;6.970;2023-06-01T16:08:53;11.52;;;3.25;;